Time;durP1;ratioP1;P1;durP2;ratioP2;P2;SDS_P1;SDS_P2;PMS_P1;PMS_P2;Temp;Humidity;BMP_temperature;BMP_pressure;BME280_temperature;BME280_humidity;BME280_pressure;Samples;Min_cycle;Max_cycle;Signal;HPM_P1;HPM_P2
2023/07/17 00:01:34;;;;;;;5.18;1.10;;;18.30;99.90;;;;;;5053982;28;20434;-52
2023/07/17 00:03:59;;;;;;;7.80;1.52;;;18.30;99.90;;;;;;5053501;28;20500;-50
2023/07/17 00:06:25;;;;;;;5.60;1.67;;;18.20;99.90;;;;;;5053559;28;20478;-51
2023/07/17 00:08:51;;;;;;;8.18;0.93;;;18.20;99.90;;;;;;5054006;28;20473;-53
2023/07/17 00:11:16;;;;;;;3.30;1.17;;;18.20;99.90;;;;;;5054097;28;20029;-53
2023/07/17 00:13:42;;;;;;;7.55;0.90;;;18.20;99.90;;;;;;5038516;28;20037;-54
2023/07/17 00:16:08;;;;;;;8.75;1.30;;;18.20;99.90;;;;;;5033963;28;20464;-54
2023/07/17 00:18:34;;;;;;;3.22;1.08;;;18.20;99.90;;;;;;5033973;28;20095;-52
2023/07/17 00:21:04;;;;;;;9.20;2.25;;;18.20;99.90;;;;;;5049017;28;20029;-54
2023/07/17 00:23:31;;;;;;;3.22;0.85;;;18.20;99.90;;;;;;5053969;28;20086;-54
2023/07/17 00:25:57;;;;;;;2.88;0.80;;;18.20;99.90;;;;;;5052985;28;20036;-50
2023/07/17 00:28:24;;;;;;;9.07;1.30;;;18.20;99.90;;;;;;5055810;28;20055;-54
2023/07/17 00:30:50;;;;;;;2.10;0.88;;;18.10;99.90;;;;;;5071989;28;20050;-55
2023/07/17 00:33:15;;;;;;;7.93;0.90;;;18.20;99.90;;;;;;5073950;28;20028;-53
2023/07/17 00:35:41;;;;;;;1.50;0.50;;;18.20;99.90;;;;;;5060343;28;20071;-53
2023/07/17 00:38:07;;;;;;;2.22;0.90;;;18.20;99.90;;;;;;5072081;28;20024;-54
2023/07/17 00:40:34;;;;;;;3.50;0.85;;;18.20;99.90;;;;;;5073444;28;20061;-53
2023/07/17 00:43:00;;;;;;;3.10;0.90;;;18.10;99.90;;;;;;5067195;28;20016;-54
2023/07/17 00:45:32;;;;;;;5.60;1.25;;;18.10;99.90;;;;;;5053423;28;20033;-52
2023/07/17 00:47:58;;;;;;;5.80;1.75;;;18.10;99.90;;;;;;5056071;28;20043;-53
2023/07/17 00:50:24;;;;;;;13.57;1.90;;;18.10;99.90;;;;;;5073347;28;20028;-52
2023/07/17 00:52:50;;;;;;;1.52;0.85;;;18.10;99.90;;;;;;5071416;28;20044;-55
2023/07/17 00:55:18;;;;;;;2.65;1.50;;;18.00;99.90;;;;;;5066844;28;20028;-53
2023/07/17 00:57:44;;;;;;;8.57;1.08;;;18.00;99.90;;;;;;5068071;28;20033;-52
2023/07/17 01:00:12;;;;;;;5.03;1.10;;;18.00;99.90;;;;;;5070405;28;20035;-55
2023/07/17 01:02:39;;;;;;;1.48;0.85;;;18.00;99.90;;;;;;5059560;28;20021;-54
2023/07/17 01:05:05;;;;;;;2.42;0.95;;;18.00;99.90;;;;;;5070727;28;20107;-54
2023/07/17 01:07:31;;;;;;;4.70;0.80;;;18.00;99.90;;;;;;5070583;28;20056;-54
2023/07/17 01:09:57;;;;;;;3.50;1.10;;;17.90;99.90;;;;;;5065517;28;20117;-53
2023/07/17 01:12:23;;;;;;;1.63;1.10;;;17.90;99.90;;;;;;5072936;28;20040;-52
2023/07/17 01:14:48;;;;;;;4.45;1.20;;;17.80;99.90;;;;;;5062051;28;20020;-54
2023/07/17 01:17:14;;;;;;;4.22;1.13;;;17.90;99.90;;;;;;5068574;28;20036;-52
2023/07/17 01:19:40;;;;;;;5.03;1.40;;;17.90;99.90;;;;;;5055105;28;20111;-54
2023/07/17 01:22:15;;;;;;;1.17;1.10;;;17.80;99.90;;;;;;5061838;28;20040;-54
2023/07/17 01:24:41;;;;;;;7.45;1.63;;;17.80;99.90;;;;;;5052002;28;20021;-54
2023/07/17 01:27:06;;;;;;;4.03;0.80;;;17.70;99.90;;;;;;5064411;28;20036;-52
2023/07/17 01:29:32;;;;;;;1.33;0.80;;;17.70;99.90;;;;;;5047172;28;20029;-55
2023/07/17 01:31:58;;;;;;;3.17;0.93;;;17.70;99.90;;;;;;5057470;28;20025;-53
2023/07/17 01:34:23;;;;;;;4.43;1.15;;;17.70;99.90;;;;;;5046942;28;20031;-50
2023/07/17 01:36:51;;;;;;;3.15;1.00;;;17.70;99.90;;;;;;5050852;28;20029;-54
2023/07/17 01:39:16;;;;;;;;;;;17.60;99.90;;;;;;5049288;28;20742;-53
2023/07/17 01:41:42;;;;;;;6.03;0.93;;;17.60;99.90;;;;;;5045732;28;19920;-57
2023/07/17 01:44:08;;;;;;;5.15;1.27;;;17.60;99.90;;;;;;5070247;28;20021;-46
2023/07/17 01:46:33;;;;;;;6.68;1.40;;;17.50;99.90;;;;;;5056950;28;20106;-53
2023/07/17 01:48:59;;;;;;;7.53;1.42;;;17.50;99.90;;;;;;5052528;28;20029;-54
2023/07/17 01:51:25;;;;;;;3.88;1.20;;;17.40;99.90;;;;;;5052441;28;20094;-54
2023/07/17 01:53:50;;;;;;;6.75;1.40;;;17.40;99.90;;;;;;5057707;28;20481;-54
2023/07/17 01:56:16;;;;;;;4.57;1.20;;;17.40;99.90;;;;;;5072496;28;20032;-53
2023/07/17 01:58:42;;;;;;;3.83;1.25;;;17.40;99.90;;;;;;5065923;28;20029;-55
2023/07/17 02:01:07;;;;;;;2.42;1.10;;;17.40;99.90;;;;;;5072489;28;20044;-53
2023/07/17 02:03:34;;;;;;;4.68;1.30;;;17.30;99.90;;;;;;5071225;28;20036;-55
2023/07/17 02:05:59;;;;;;;3.88;1.92;;;17.30;99.90;;;;;;5072657;28;20013;-53
2023/07/17 02:08:25;;;;;;;3.78;1.38;;;17.30;99.90;;;;;;5063332;28;20496;-54
2023/07/17 02:10:52;;;;;;;3.75;1.50;;;17.30;99.90;;;;;;5052368;28;20477;-53
2023/07/17 02:13:17;;;;;;;4.35;1.35;;;17.20;99.90;;;;;;5051021;28;20488;-55
2023/07/17 02:15:45;;;;;;;11.77;1.50;;;17.20;99.90;;;;;;5053902;28;20053;-55
2023/07/17 02:18:10;;;;;;;7.10;1.17;;;17.10;99.90;;;;;;5050929;28;20123;-54
2023/07/17 02:20:36;;;;;;;7.57;1.20;;;17.10;99.90;;;;;;5055508;28;20133;-52
2023/07/17 02:23:02;;;;;;;4.82;1.75;;;17.00;99.90;;;;;;5052503;28;20397;-53
2023/07/17 02:25:28;;;;;;;5.85;1.45;;;17.10;99.90;;;;;;5052035;28;20032;-54
2023/07/17 02:27:53;;;;;;;4.05;1.40;;;17.00;99.90;;;;;;5053659;28;20033;-54
2023/07/17 02:30:19;;;;;;;4.15;1.30;;;17.00;99.90;;;;;;5055689;28;20110;-52
2023/07/17 02:32:45;;;;;;;1.73;1.10;;;17.00;99.90;;;;;;5056002;28;20033;-53
2023/07/17 02:35:10;;;;;;;6.03;2.05;;;16.90;99.90;;;;;;5067529;28;20107;-54
2023/07/17 02:37:36;;;;;;;9.88;1.67;;;16.90;99.90;;;;;;5070443;28;20071;-52
2023/07/17 02:40:10;;;;;;;2.10;1.10;;;16.80;99.90;;;;;;5071628;28;20024;-53
2023/07/17 02:42:37;;;;;;;2.08;1.00;;;16.80;99.90;;;;;;5065130;28;20087;-55
2023/07/17 02:45:03;;;;;;;6.45;1.30;;;16.80;99.90;;;;;;5061941;28;20074;-54
2023/07/17 02:47:29;;;;;;;2.50;0.97;;;16.80;99.90;;;;;;5070310;28;20096;-53
2023/07/17 02:49:55;;;;;;;6.28;1.27;;;16.80;99.90;;;;;;5075650;28;20070;-51
2023/07/17 02:52:21;;;;;;;5.93;1.20;;;16.80;99.90;;;;;;5066476;28;20033;-53
2023/07/17 02:54:46;;;;;;;3.58;1.20;;;16.80;99.90;;;;;;5053574;28;20481;-53
2023/07/17 02:57:13;;;;;;;4.70;1.83;;;16.80;99.90;;;;;;5053395;28;20032;-55
2023/07/17 02:59:39;;;;;;;8.15;1.38;;;16.70;99.90;;;;;;5042101;28;20049;-53
2023/07/17 03:02:05;;;;;;;6.68;1.77;;;16.70;99.90;;;;;;5050957;28;20025;-47
2023/07/17 03:04:31;;;;;;;5.18;1.40;;;16.70;99.90;;;;;;5051707;28;20079;-54
2023/07/17 03:06:56;;;;;;;2.67;1.42;;;16.70;99.90;;;;;;5074352;28;20384;-55
2023/07/17 03:09:22;;;;;;;7.07;1.70;;;16.70;99.90;;;;;;5055220;28;20029;-52
2023/07/17 03:11:48;;;;;;;4.75;1.60;;;16.70;99.90;;;;;;5054729;28;20031;-49
2023/07/17 03:14:14;;;;;;;5.75;1.38;;;16.70;99.90;;;;;;5059650;28;20358;-57
2023/07/17 03:16:40;;;;;;;6.32;1.40;;;16.70;99.90;;;;;;5064747;28;20036;-54
2023/07/17 03:19:06;;;;;;;5.60;2.10;;;16.60;99.90;;;;;;5069823;28;20495;-55
2023/07/17 03:21:32;;;;;;;3.03;1.77;;;16.60;99.90;;;;;;5072911;28;20051;-54
2023/07/17 03:23:58;;;;;;;5.85;1.90;;;16.50;99.90;;;;;;5072497;28;20021;-55
2023/07/17 03:26:23;;;;;;;7.63;1.70;;;16.50;99.90;;;;;;5070810;28;20032;-55
2023/07/17 03:28:49;;;;;;;10.90;2.63;;;16.50;99.90;;;;;;5068864;28;20033;-52
2023/07/17 03:31:14;;;;;;;9.95;2.70;;;16.50;99.90;;;;;;5053350;28;20032;-53
2023/07/17 03:33:40;;;;;;;2.72;1.48;;;16.50;99.90;;;;;;5054412;28;20078;-55
2023/07/17 03:36:06;;;;;;;5.82;1.90;;;16.50;99.90;;;;;;5051387;28;20033;-53
2023/07/17 03:38:32;;;;;;;8.07;1.80;;;16.50;99.90;;;;;;5057908;28;20040;-54
2023/07/17 03:40:58;;;;;;;5.25;1.73;;;16.50;99.90;;;;;;5057222;28;20025;-55
2023/07/17 03:43:23;;;;;;;7.63;2.25;;;16.50;99.90;;;;;;5050973;28;20465;-53
2023/07/17 03:45:51;;;;;;;10.15;1.60;;;16.40;99.90;;;;;;5067011;28;20021;-54
2023/07/17 03:48:18;;;;;;;5.78;2.10;;;16.40;99.90;;;;;;5053266;28;20086;-52
2023/07/17 03:50:43;;;;;;;2.63;1.40;;;16.40;99.90;;;;;;5051857;28;20116;-54
2023/07/17 03:53:09;;;;;;;5.75;1.88;;;16.40;99.90;;;;;;5051712;28;20116;-55
2023/07/17 03:55:35;;;;;;;6.05;1.85;;;16.30;99.90;;;;;;5054776;28;20120;-55
2023/07/17 03:58:01;;;;;;;3.83;1.80;;;16.30;99.90;;;;;;5054375;28;20158;-55
2023/07/17 04:00:27;;;;;;;7.25;2.00;;;16.30;99.90;;;;;;5051540;28;20530;-55
2023/07/17 04:02:52;;;;;;;3.33;1.40;;;16.30;99.90;;;;;;5059090;28;20032;-54
2023/07/17 04:05:18;;;;;;;5.90;1.77;;;16.30;99.90;;;;;;5052788;28;20028;-56
2023/07/17 04:07:44;;;;;;;5.32;1.92;;;16.30;99.90;;;;;;5050365;28;20029;-53
2023/07/17 04:10:09;;;;;;;8.73;2.67;;;16.30;99.90;;;;;;5052652;28;20021;-55
2023/07/17 04:12:35;;;;;;;3.63;1.83;;;16.30;99.90;;;;;;5056316;28;20107;-55
2023/07/17 04:15:01;;;;;;;4.93;2.03;;;16.40;99.90;;;;;;5056345;28;20073;-54
2023/07/17 04:17:26;;;;;;;4.85;2.30;;;16.40;99.90;;;;;;5052912;28;20553;-51
2023/07/17 04:19:52;;;;;;;6.22;2.72;;;16.40;99.90;;;;;;5060281;28;20124;-53
2023/07/17 04:22:17;;;;;;;12.50;2.10;;;16.40;99.90;;;;;;5050529;28;20036;-53
2023/07/17 04:24:43;;;;;;;7.13;2.72;;;16.40;99.90;;;;;;5052893;28;20029;-48
2023/07/17 04:27:08;;;;;;;8.57;1.90;;;16.40;99.90;;;;;;5042158;28;20445;-51
2023/07/17 04:29:34;;;;;;;4.07;1.75;;;16.40;99.90;;;;;;5073706;28;20064;-54
2023/07/17 04:32:00;;;;;;;9.23;2.00;;;16.30;99.90;;;;;;5073739;28;20067;-54
2023/07/17 04:34:25;;;;;;;6.78;2.28;;;16.30;99.90;;;;;;5072584;28;20393;-53
2023/07/17 04:36:51;;;;;;;11.50;2.17;;;16.30;99.90;;;;;;5073557;28;20103;-53
2023/07/17 04:39:16;;;;;;;9.23;2.70;;;16.30;99.90;;;;;;5073566;28;20059;-54
2023/07/17 04:41:43;;;;;;;7.72;2.13;;;16.30;99.90;;;;;;5066337;28;20032;-54
2023/07/17 04:44:09;;;;;;;12.20;1.90;;;16.30;99.90;;;;;;5064302;28;20059;-55
2023/07/17 04:46:35;;;;;;;8.95;2.42;;;16.40;99.90;;;;;;5051981;28;20057;-52
2023/07/17 04:49:02;;;;;;;6.38;2.65;;;16.40;99.90;;;;;;5033739;28;20116;-53
2023/07/17 04:51:28;;;;;;;9.38;2.72;;;16.40;99.90;;;;;;5033488;28;20035;-54
2023/07/17 04:53:53;;;;;;;11.70;2.47;;;16.40;99.90;;;;;;5062706;28;20029;-54
2023/07/17 04:56:19;;;;;;;6.45;2.30;;;16.40;99.90;;;;;;5073247;28;20024;-53
2023/07/17 04:58:45;;;;;;;8.23;2.40;;;16.40;99.90;;;;;;5057857;28;20036;-53
2023/07/17 05:01:11;;;;;;;7.72;3.15;;;16.50;99.90;;;;;;5053258;28;20021;-54
2023/07/17 05:03:37;;;;;;;8.75;2.17;;;16.50;99.90;;;;;;5070578;28;20024;-54
2023/07/17 05:06:03;;;;;;;7.22;2.65;;;16.50;99.90;;;;;;5073078;28;20245;-54
2023/07/17 05:08:29;;;;;;;9.98;3.00;;;16.60;99.90;;;;;;5067824;28;20036;-54
2023/07/17 05:10:59;;;;;;;8.32;3.38;;;16.60;99.90;;;;;;5072539;28;20033;-54
2023/07/17 05:13:25;;;;;;;5.97;2.40;;;16.70;99.90;;;;;;5066734;28;20028;-54
2023/07/17 05:15:51;;;;;;;7.40;2.83;;;16.80;99.90;;;;;;5059874;28;20394;-55
2023/07/17 05:18:17;;;;;;;5.43;2.47;;;16.80;99.90;;;;;;5052647;28;20025;-54
2023/07/17 05:20:44;;;;;;;8.23;3.05;;;16.90;99.90;;;;;;5051729;28;20040;-51
2023/07/17 05:23:11;;;;;;;13.30;3.75;;;16.90;99.90;;;;;;5052866;28;20021;-53
2023/07/17 05:25:36;;;;;;;11.93;3.60;;;16.90;99.90;;;;;;5052988;28;20017;-53
2023/07/17 05:28:04;;;;;;;6.70;3.13;;;17.00;99.90;;;;;;5059714;28;20047;-52
2023/07/17 05:30:36;;;;;;;9.82;2.88;;;17.00;99.90;;;;;;5045638;28;20022;-53
2023/07/17 05:33:02;;;;;;;14.52;3.97;;;17.10;99.90;;;;;;5049560;28;20236;-50
2023/07/17 05:35:28;;;;;;;18.23;4.03;;;17.10;99.90;;;;;;5050558;28;20033;-52
2023/07/17 05:37:54;;;;;;;10.80;3.47;;;17.10;99.90;;;;;;5043270;28;20040;-47
2023/07/17 05:40:20;;;;;;;8.70;3.30;;;17.00;99.90;;;;;;5051951;28;20379;-52
2023/07/17 05:42:46;;;;;;;14.07;4.28;;;17.10;99.90;;;;;;5056371;28;20362;-53
2023/07/17 05:45:11;;;;;;;9.82;3.72;;;17.00;99.90;;;;;;5072906;28;20021;-55
2023/07/17 05:47:38;;;;;;;6.75;2.95;;;17.10;99.90;;;;;;5069398;28;20103;-53
2023/07/17 05:50:04;;;;;;;10.60;3.40;;;17.10;99.90;;;;;;5061393;28;20021;-54
2023/07/17 05:52:30;;;;;;;6.85;3.38;;;17.20;99.90;;;;;;5068635;28;20591;-54
2023/07/17 05:54:56;;;;;;;7.65;3.60;;;17.30;99.90;;;;;;5072784;28;20029;-51
2023/07/17 05:57:21;;;;;;;10.30;3.80;;;17.40;99.90;;;;;;5052469;28;20036;-51
2023/07/17 05:59:47;;;;;;;17.70;4.22;;;17.40;99.90;;;;;;5043679;28;20032;-53
2023/07/17 06:02:14;;;;;;;14.50;4.65;;;17.40;99.90;;;;;;5052341;28;20100;-55
2023/07/17 06:04:40;;;;;;;10.07;3.90;;;17.50;99.90;;;;;;5055179;28;20021;-54
2023/07/17 06:07:06;;;;;;;7.60;3.63;;;17.60;99.90;;;;;;5056416;28;20036;-52
2023/07/17 06:09:34;;;;;;;6.97;3.78;;;17.70;99.90;;;;;;5056236;28;20033;-55
2023/07/17 06:12:00;;;;;;;16.33;4.53;;;17.70;99.90;;;;;;5056309;28;20131;-54
2023/07/17 06:14:25;;;;;;;10.55;4.03;;;17.60;99.90;;;;;;5055973;28;20053;-54
2023/07/17 06:16:51;;;;;;;17.05;4.47;;;17.60;99.90;;;;;;5055368;28;20028;-53
2023/07/17 06:19:17;;;;;;;13.80;5.25;;;17.60;99.90;;;;;;5056072;28;20053;-48
2023/07/17 06:21:42;;;;;;;18.23;4.68;;;17.60;99.90;;;;;;5055907;28;20033;-55
2023/07/17 06:24:08;;;;;;;10.57;4.25;;;17.70;99.90;;;;;;5055970;28;20493;-54
2023/07/17 06:26:36;;;;;;;18.38;4.43;;;17.70;99.90;;;;;;5055845;28;20021;-53
2023/07/17 06:29:03;;;;;;;18.02;3.88;;;17.90;99.90;;;;;;5055014;28;20398;-55
2023/07/17 06:31:28;;;;;;;12.73;4.07;;;18.00;99.90;;;;;;5052838;28;20079;-53
2023/07/17 06:33:54;;;;;;;12.68;4.75;;;18.00;99.90;;;;;;5055136;28;20064;-48
2023/07/17 06:36:20;;;;;;;18.05;4.38;;;18.10;99.90;;;;;;5055700;28;20040;-54
2023/07/17 06:38:45;;;;;;;12.52;4.47;;;18.30;99.90;;;;;;5055569;28;20056;-49
2023/07/17 06:41:11;;;;;;;9.13;4.60;;;18.40;99.90;;;;;;5054804;28;20465;-54
2023/07/17 06:43:36;;;;;;;17.75;4.28;;;18.50;99.90;;;;;;5055082;28;20493;-50
2023/07/17 06:46:04;;;;;;;8.32;4.05;;;18.70;99.90;;;;;;5055172;28;20032;-54
2023/07/17 06:48:30;;;;;;;10.63;4.97;;;18.90;99.90;;;;;;5054705;28;20025;-54
2023/07/17 06:50:55;;;;;;;11.50;4.57;;;19.40;99.90;;;;;;5053824;28;20458;-49
2023/07/17 06:53:21;;;;;;;13.15;4.55;;;20.10;99.90;;;;;;5053677;28;20021;-54
2023/07/17 06:55:55;;;;;;;15.20;3.97;;;20.80;99.90;;;;;;5042164;28;20029;-55
2023/07/17 06:58:20;;;;;;;12.18;4.47;;;21.50;99.90;;;;;;5047164;28;20241;-55
2023/07/17 07:00:46;;;;;;;9.93;3.85;;;21.90;99.90;;;;;;5049404;28;20025;-53
2023/07/17 07:03:12;;;;;;;5.43;3.25;;;22.10;99.90;;;;;;5043868;28;20103;-56
2023/07/17 07:05:37;;;;;;;11.05;3.97;;;22.50;99.90;;;;;;5055231;28;20477;-54
2023/07/17 07:08:03;;;;;;;12.05;3.72;;;22.90;99.90;;;;;;5054607;28;20032;-53
2023/07/17 07:10:29;;;;;;;9.60;3.15;;;23.80;99.90;;;;;;5055543;28;20366;-49
2023/07/17 07:12:54;;;;;;;11.50;4.13;;;24.20;99.90;;;;;;5055498;28;20021;-49
2023/07/17 07:15:20;;;;;;;7.45;3.20;;;24.60;99.90;;;;;;5049525;28;20025;-49
2023/07/17 07:17:46;;;;;;;12.32;3.42;;;24.80;99.90;;;;;;5052344;28;20040;-54
2023/07/17 07:20:12;;;;;;;8.57;3.78;;;24.90;99.90;;;;;;5054828;28;20111;-53
2023/07/17 07:22:37;;;;;;;8.05;3.50;;;25.30;99.90;;;;;;5052260;28;20029;-52
2023/07/17 07:25:04;;;;;;;15.63;3.67;;;25.40;99.90;;;;;;5045859;28;20017;-57
2023/07/17 07:27:31;;;;;;;6.50;2.50;;;25.20;99.90;;;;;;5047479;28;20489;-49
2023/07/17 07:29:56;;;;;;;7.80;2.45;;;25.00;99.90;;;;;;5051582;28;20033;-54
2023/07/17 07:32:22;;;;;;;4.35;2.70;;;25.10;99.90;;;;;;5053380;28;20512;-53
2023/07/17 07:34:47;;;;;;;4.50;2.88;;;25.20;99.90;;;;;;5055058;28;20017;-55
2023/07/17 07:37:13;;;;;;;16.08;4.07;;;25.10;99.90;;;;;;5048167;28;20127;-55
2023/07/17 07:39:39;;;;;;;9.32;3.00;;;24.30;99.90;;;;;;5053442;28;20025;-55
2023/07/17 07:42:05;;;;;;;6.63;2.92;;;23.70;99.90;;;;;;5049198;28;20473;-56
2023/07/17 07:44:30;;;;;;;7.72;3.22;;;23.40;99.90;;;;;;5051476;28;20529;-47
2023/07/17 07:46:56;;;;;;;5.15;2.85;;;22.80;99.90;;;;;;5049441;28;20104;-53
2023/07/17 07:49:22;;;;;;;6.70;2.78;;;22.20;99.90;;;;;;5072995;28;20100;-56
2023/07/17 07:51:47;;;;;;;6.90;2.70;;;22.00;99.90;;;;;;5071478;28;20384;-55
2023/07/17 07:54:13;;;;;;;7.85;3.17;;;22.00;99.90;;;;;;5073456;28;20032;-47
2023/07/17 07:56:39;;;;;;;11.02;2.65;;;22.00;99.90;;;;;;5072827;28;20432;-58
2023/07/17 07:59:04;;;;;;;14.40;4.32;;;22.10;99.90;;;;;;5046606;28;20058;-50
2023/07/17 08:01:30;;;;;;;3.67;2.20;;;21.80;99.90;;;;;;5053322;28;20017;-52
2023/07/17 08:03:55;;;;;;;4.95;2.65;;;21.60;99.90;;;;;;5063326;28;20393;-49
2023/07/17 08:06:21;;;;;;;9.77;2.30;;;21.30;99.90;;;;;;5041779;28;20289;-54
2023/07/17 08:08:47;;;;;;;5.10;2.50;;;20.90;99.90;;;;;;5054447;28;20469;-51
2023/07/17 08:11:12;;;;;;;11.23;2.33;;;20.80;99.90;;;;;;5054078;28;20067;-50
2023/07/17 08:13:38;;;;;;;5.28;2.20;;;21.10;99.90;;;;;;5056853;28;20481;-51
2023/07/17 08:16:04;;;;;;;3.25;1.65;;;21.30;99.90;;;;;;5068457;28;20017;-54
2023/07/17 08:18:29;;;;;;;9.75;2.55;;;21.50;99.90;;;;;;5069605;28;20116;-53
2023/07/17 08:20:55;;;;;;;6.10;2.13;;;21.60;99.90;;;;;;5052525;28;20083;-55
2023/07/17 08:23:27;;;;;;;3.97;1.92;;;21.60;99.90;;;;;;5035675;28;20451;-53
2023/07/17 08:25:53;;;;;;;2.05;1.60;;;22.00;99.90;;;;;;5033971;28;20065;-38
2023/07/17 08:28:18;;;;;;;6.05;1.67;;;22.40;99.90;;;;;;5033607;28;20025;-39
2023/07/17 08:30:44;;;;;;;4.72;1.30;;;22.40;99.90;;;;;;5048581;28;20025;-45
2023/07/17 08:33:11;;;;;;;6.85;1.40;;;22.40;99.90;;;;;;5052998;28;20103;-37
2023/07/17 08:35:37;;;;;;;5.13;1.63;;;22.20;99.90;;;;;;5054046;28;20053;-42
2023/07/17 08:38:03;;;;;;;4.40;2.00;;;21.80;99.90;;;;;;5048359;28;20068;-41
2023/07/17 08:40:29;;;;;;;8.02;1.92;;;21.60;99.90;;;;;;5033720;28;20032;-43
2023/07/17 08:42:57;;;;;;;2.57;1.20;;;21.50;99.90;;;;;;5033715;28;20117;-39
2023/07/17 08:45:25;;;;;;;7.45;1.70;;;21.80;99.90;;;;;;5033195;28;20268;-46
2023/07/17 08:47:52;;;;;;;4.38;1.65;;;22.00;99.90;;;;;;5053525;28;20084;-38
2023/07/17 08:50:19;;;;;;;4.40;1.43;;;22.30;99.90;;;;;;5052780;28;20090;-41
2023/07/17 08:52:47;;;;;;;9.57;2.22;;;22.70;99.90;;;;;;5051630;28;20032;-44
2023/07/17 08:55:12;;;;;;;9.65;2.08;;;23.10;99.90;;;;;;5046968;28;20036;-40
2023/07/17 08:57:39;;;;;;;2.17;0.93;;;23.10;99.90;;;;;;5033112;28;20034;-37
2023/07/17 09:00:05;;;;;;;3.50;1.08;;;23.60;99.90;;;;;;5033560;28;20051;-42
2023/07/17 09:02:32;;;;;;;1.83;1.20;;;24.10;99.80;;;;;;5033199;28;20467;-39
2023/07/17 09:04:58;;;;;;;1.92;1.17;;;24.30;99.90;;;;;;5033394;28;20014;-42
2023/07/17 09:07:24;;;;;;;2.10;1.20;;;24.40;99.40;;;;;;5033109;28;20390;-42
2023/07/17 09:10:23;;;;;;;2.80;0.95;;;24.30;98.90;;;;;;5032973;28;20083;-38
2023/07/17 09:12:58;;;;;;;4.05;1.23;;;24.10;98.70;;;;;;5032230;28;20482;-43
2023/07/17 09:15:26;;;;;;;1.45;0.90;;;23.90;99.10;;;;;;5033049;28;20481;-39
2023/07/17 09:17:52;;;;;;;4.63;1.20;;;23.80;99.70;;;;;;5032968;28;20029;-42
2023/07/17 09:20:19;;;;;;;2.78;1.10;;;23.80;99.30;;;;;;5032934;28;20124;-37
2023/07/17 09:22:45;;;;;;;4.50;1.20;;;23.40;99.90;;;;;;5033022;28;20478;-40
2023/07/17 09:25:13;;;;;;;2.13;1.30;;;23.10;99.90;;;;;;5032636;28;20029;-38
2023/07/17 09:27:51;;;;;;;4.03;1.40;;;22.90;99.90;;;;;;5032852;28;20272;-39
2023/07/17 09:30:18;;;;;;;10.63;2.53;;;22.50;99.90;;;;;;5032832;28;20037;-39
2023/07/17 09:32:44;;;;;;;;;;;22.00;99.90;;;;;;5033287;28;20037;-38
2023/07/17 09:35:11;;;;;;;2.95;1.60;;;21.70;99.90;;;;;;5033140;28;19987;-38
2023/07/17 09:37:39;;;;;;;4.00;2.00;;;21.40;99.90;;;;;;5032385;28;20021;-39
2023/07/17 09:40:12;;;;;;;1.98;1.52;;;21.40;99.90;;;;;;5032346;28;20035;-37
2023/07/17 09:42:40;;;;;;;3.92;1.58;;;21.40;99.90;;;;;;5032783;28;20441;-41
2023/07/17 09:45:06;;;;;;;6.35;1.98;;;21.10;99.90;;;;;;5032728;28;20498;-40
2023/07/17 09:47:32;;;;;;;3.28;2.20;;;20.80;99.90;;;;;;5051085;28;20033;-39
2023/07/17 09:50:00;;;;;;;9.02;2.17;;;20.70;99.90;;;;;;5052576;28;20453;-39
2023/07/17 09:52:29;;;;;;;5.03;1.90;;;20.60;99.90;;;;;;5052466;28;20033;-43
2023/07/17 09:54:55;;;;;;;7.90;2.97;;;20.60;99.90;;;;;;5052464;28;20033;-41
2023/07/17 09:57:28;;;;;;;14.07;3.60;;;20.60;99.90;;;;;;5052662;28;20481;-37
2023/07/17 09:59:57;;;;;;;3.72;2.25;;;20.70;99.90;;;;;;5052406;28;20071;-39
2023/07/17 10:02:29;;;;;;;12.32;3.15;;;20.70;99.90;;;;;;5052672;28;20385;-41
2023/07/17 10:04:58;;;;;;;5.57;2.47;;;20.90;99.90;;;;;;5052756;28;20024;-37
2023/07/17 10:07:24;;;;;;;8.85;2.90;;;20.90;99.90;;;;;;5052335;28;20052;-40
2023/07/17 10:09:50;;;;;;;7.90;2.67;;;20.70;99.90;;;;;;5052403;28;20052;-38
2023/07/17 10:12:17;;;;;;;3.97;2.13;;;20.80;99.90;;;;;;5052402;28;20036;-45
2023/07/17 10:14:45;;;;;;;8.02;2.38;;;21.00;99.90;;;;;;5052315;28;20504;-39
2023/07/17 10:17:43;;;;;;;3.75;1.48;;;21.60;99.90;;;;;;5052146;28;20021;-39
2023/07/17 10:20:12;;;;;;;4.95;1.48;;;21.80;99.90;;;;;;5050710;28;20516;-38
2023/07/17 10:22:43;;;;;;;3.38;1.50;;;22.00;99.90;;;;;;5052212;28;20029;-41
2023/07/17 10:25:18;;;;;;;5.18;2.05;;;22.20;99.90;;;;;;5052390;28;20047;-38
2023/07/17 10:27:53;;;;;;;6.35;2.10;;;22.50;99.90;;;;;;5052209;28;20037;-37
2023/07/17 10:30:32;;;;;;;7.32;1.58;;;23.00;99.90;;;;;;5052524;28;20436;-41
2023/07/17 10:33:16;;;;;;;5.85;1.67;;;23.60;99.90;;;;;;5052200;28;20060;-38
2023/07/17 10:35:50;;;;;;;6.95;2.20;;;23.90;99.90;;;;;;5052434;28;20461;-40
2023/07/17 10:38:24;;;;;;;3.45;1.45;;;23.50;99.90;;;;;;5052110;28;20032;-37
2023/07/17 10:41:13;;;;;;;3.30;1.70;;;23.00;99.90;;;;;;5050812;28;20457;-37
2023/07/17 10:43:57;;;;;;;3.58;1.50;;;22.50;99.90;;;;;;5052129;28;20075;-37
2023/07/17 10:46:30;;;;;;;4.72;1.67;;;22.00;99.90;;;;;;5051962;28;20083;-40
2023/07/17 10:49:10;;;;;;;4.30;1.70;;;21.20;99.90;;;;;;5052116;28;20029;-38
2023/07/17 10:51:37;;;;;;;7.38;1.60;;;19.90;99.90;;;;;;5056050;28;20363;-36
2023/07/17 10:54:03;;;;;;;6.25;1.70;;;19.00;99.90;;;;;;5055701;28;20029;-36
2023/07/17 10:56:32;;;;;;;12.77;2.22;;;18.00;99.90;;;;;;5055865;28;20481;-33
2023/07/17 10:58:58;;;;;;;4.63;1.67;;;17.40;99.90;;;;;;5055829;28;20029;-34
2023/07/17 11:01:24;;;;;;;8.70;1.80;;;16.90;99.90;;;;;;5055810;28;20025;-37
2023/07/17 11:03:50;;;;;;;9.10;2.30;;;16.40;99.90;;;;;;5055446;28;20035;-36
2023/07/17 11:06:17;;;;;;;2.60;1.73;;;16.10;99.90;;;;;;5055693;28;20107;-37
2023/07/17 11:08:48;;;;;;;10.90;2.20;;;16.00;99.90;;;;;;5055716;28;20025;-37
2023/07/17 11:11:14;;;;;;;4.90;1.63;;;15.90;99.90;;;;;;5055426;28;20029;-39
2023/07/17 11:13:39;;;;;;;5.88;2.58;;;15.90;99.90;;;;;;5055302;28;20031;-37
2023/07/17 11:16:10;;;;;;;6.80;2.20;;;15.90;99.90;;;;;;5055258;28;20029;-35
2023/07/17 11:19:04;;;;;;;7.85;2.35;;;15.90;99.90;;;;;;5054979;28;20087;-36
2023/07/17 11:21:29;;;;;;;7.20;2.38;;;15.80;99.90;;;;;;5054878;28;20128;-36
2023/07/17 11:23:57;;;;;;;6.43;3.17;;;15.90;99.90;;;;;;5055116;28;20112;-37
2023/07/17 11:26:24;;;;;;;;;;;16.10;99.90;;;;;;5054317;28;20021;-36
2023/07/17 11:28:57;;;;;;;6.55;2.63;;;16.30;99.90;;;;;;5055005;28;19999;-36
2023/07/17 11:31:29;;;;;;;3.47;2.20;;;16.70;99.90;;;;;;5055012;28;20463;-35
2023/07/17 11:33:59;;;;;;;7.95;2.85;;;16.90;99.90;;;;;;5054975;28;20075;-35
2023/07/17 11:36:26;;;;;;;8.80;2.50;;;17.20;99.90;;;;;;5055168;28;20104;-36
2023/07/17 11:38:55;;;;;;;11.25;2.45;;;17.40;99.90;;;;;;5054793;28;20032;-36
2023/07/17 11:41:20;;;;;;;5.03;2.55;;;17.50;99.90;;;;;;5054796;28;20481;-36
2023/07/17 11:43:56;;;;;;;12.32;2.72;;;17.70;99.90;;;;;;5054779;28;20086;-35
2023/07/17 11:46:25;;;;;;;4.78;3.08;;;18.00;99.90;;;;;;5054618;28;20025;-36
2023/07/17 11:48:53;;;;;;;5.35;3.08;;;18.30;99.90;;;;;;5054890;28;20045;-36
2023/07/17 11:51:24;;;;;;;6.28;3.00;;;18.60;99.90;;;;;;5054847;28;20029;-35
2023/07/17 11:53:54;;;;;;;10.60;3.30;;;18.80;99.90;;;;;;5054605;28;20021;-36
2023/07/17 11:56:31;;;;;;;6.68;2.25;;;19.20;99.90;;;;;;5054774;28;20035;-36
2023/07/17 11:58:57;;;;;;;6.78;2.10;;;19.40;99.90;;;;;;5054435;28;20029;-36
2023/07/17 12:01:23;;;;;;;3.85;1.73;;;19.50;99.90;;;;;;5053541;28;20035;-35
2023/07/17 12:03:48;;;;;;;12.25;2.53;;;19.60;99.90;;;;;;5054551;28;20384;-37
2023/07/17 12:06:14;;;;;;;4.55;2.03;;;19.80;99.90;;;;;;5054328;28;20027;-37
2023/07/17 12:08:41;;;;;;;3.33;2.20;;;20.00;99.90;;;;;;5054249;28;20039;-36
2023/07/17 12:11:06;;;;;;;4.78;2.60;;;20.20;99.90;;;;;;5054205;28;20029;-35
2023/07/17 12:13:32;;;;;;;8.35;2.20;;;20.40;99.90;;;;;;5054441;28;20416;-36
2023/07/17 12:15:58;;;;;;;9.20;2.22;;;20.40;99.90;;;;;;5054057;28;20501;-41
2023/07/17 12:18:23;;;;;;;7.82;2.92;;;20.30;99.90;;;;;;5053973;28;20029;-39
2023/07/17 12:20:49;;;;;;;6.03;2.65;;;20.20;99.90;;;;;;5053909;28;20052;-37
2023/07/17 12:23:15;;;;;;;6.93;3.30;;;20.20;99.90;;;;;;5054223;28;20017;-37
2023/07/17 12:25:42;;;;;;;6.30;3.08;;;20.10;99.90;;;;;;5054190;28;20031;-37
2023/07/17 12:28:08;;;;;;;8.30;2.80;;;20.00;99.90;;;;;;5054143;28;20481;-37
2023/07/17 12:30:34;;;;;;;11.55;3.13;;;19.70;99.90;;;;;;5054128;28;20078;-38
2023/07/17 12:33:00;;;;;;;11.10;2.97;;;19.40;99.90;;;;;;5054102;28;20044;-39
2023/07/17 12:35:25;;;;;;;3.88;2.33;;;19.10;99.90;;;;;;5054026;28;20040;-37
2023/07/17 12:37:51;;;;;;;5.88;1.98;;;18.90;99.90;;;;;;5053629;28;20474;-37
2023/07/17 12:40:17;;;;;;;12.88;2.85;;;18.70;99.90;;;;;;5053647;28;20029;-38
2023/07/17 12:42:42;;;;;;;7.50;2.40;;;18.60;99.90;;;;;;5053634;28;20017;-36
2023/07/17 12:45:08;;;;;;;8.32;2.53;;;18.50;99.90;;;;;;5053599;28;20056;-37